Time;durP1;ratioP1;P1;durP2;ratioP2;P2;SDS_P1;SDS_P2;PMS_P1;PMS_P2;Temp;Humidity;BMP_temperature;BMP_pressure;BME280_temperature;BME280_humidity;BME280_pressure;Samples;Min_cycle;Max_cycle;Signal;HPM_P1;HPM_P2
2024/02/20 00:00:02;;;;;;;35.97;18.15;;;;;;;;;;5090947;28;20181;-76
2024/02/20 00:02:28;;;;;;;54.22;24.05;;;;;;;;;;5093518;28;20022;-77
2024/02/20 00:04:54;;;;;;;33.75;17.42;;;;;;;;;;5094968;28;20027;-76
2024/02/20 00:07:20;;;;;;;62.35;30.23;;;;;;;;;;5096596;28;20031;-77
2024/02/20 00:09:47;;;;;;;62.83;26.65;;;;;;;;;;5095073;28;20020;-76
2024/02/20 00:12:13;;;;;;;31.48;17.10;;;;;;;;;;5096385;28;20039;-76
2024/02/20 00:14:39;;;;;;;29.23;15.73;;;;;;;;;;5096442;28;20021;-75
2024/02/20 00:17:05;;;;;;;36.17;18.38;;;;;;;;;;5095181;28;20028;-76
2024/02/20 00:19:31;;;;;;;30.77;15.88;;;;;;;;;;5094760;28;20069;-76
2024/02/20 00:21:57;;;;;;;21.27;13.15;;;;;;;;;;5095164;28;20039;-76
2024/02/20 00:24:23;;;;;;;21.10;12.98;;;;;;;;;;5094922;28;20036;-75
2024/02/20 00:26:49;;;;;;;23.40;13.95;;;;;;;;;;5096221;28;20014;-76
2024/02/20 00:29:16;;;;;;;22.70;11.77;;;;;;;;;;5095941;28;20024;-76
2024/02/20 00:31:42;;;;;;;22.23;12.93;;;;;;;;;;5094765;28;20032;-75
2024/02/20 00:34:08;;;;;;;24.75;13.05;;;;;;;;;;5096005;28;20076;-76
2024/02/20 00:36:34;;;;;;;20.42;12.43;;;;;;;;;;5096103;28;20102;-77
2024/02/20 00:39:00;;;;;;;19.70;11.80;;;;;;;;;;5078473;28;20513;-76
2024/02/20 00:41:26;;;;;;;19.13;11.63;;;;;;;;;;5012679;28;20033;-77
2024/02/20 00:43:52;;;;;;;19.83;12.55;;;;;;;;;;5080698;28;20050;-76
2024/02/20 00:46:19;;;;;;;17.25;10.13;;;;;;;;;;5080805;28;20018;-76
2024/02/20 00:48:50;;;;;;;18.17;11.00;;;;;;;;;;4999912;28;20046;-76
2024/02/20 00:51:18;;;;;;;21.05;11.77;;;;;;;;;;5080239;28;20506;-76
2024/02/20 00:53:44;;;;;;;20.10;11.82;;;;;;;;;;5012610;28;20021;-77
2024/02/20 00:56:11;;;;;;;19.63;12.18;;;;;;;;;;5012366;28;20032;-76
2024/02/20 00:58:38;;;;;;;20.30;11.82;;;;;;;;;;5080609;28;20535;-76
2024/02/20 01:01:04;;;;;;;17.98;11.38;;;;;;;;;;5079888;28;20034;-76
2024/02/20 01:03:30;;;;;;;20.67;11.77;;;;;;;;;;5080248;28;20037;-76
2024/02/20 01:05:56;;;;;;;18.33;11.25;;;;;;;;;;5080104;28;20118;-76
2024/02/20 01:08:22;;;;;;;24.35;12.25;;;;;;;;;;5080095;28;20073;-76
2024/02/20 01:10:49;;;;;;;22.25;13.48;;;;;;;;;;5078090;28;20029;-76
2024/02/20 01:13:14;;;;;;;17.27;10.82;;;;;;;;;;5012249;28;20053;-76
2024/02/20 01:15:40;;;;;;;20.40;11.07;;;;;;;;;;5077544;28;20041;-76
2024/02/20 01:18:06;;;;;;;21.73;11.80;;;;;;;;;;5080011;28;20026;-77
2024/02/20 01:20:32;;;;;;;17.15;10.27;;;;;;;;;;5012078;28;20021;-76
2024/02/20 01:22:58;;;;;;;18.38;11.13;;;;;;;;;;5002656;28;20100;-77
2024/02/20 01:25:24;;;;;;;20.17;11.20;;;;;;;;;;5080054;28;20026;-76
2024/02/20 01:27:51;;;;;;;17.90;10.23;;;;;;;;;;5079574;28;20175;-75
2024/02/20 01:30:17;;;;;;;24.38;13.23;;;;;;;;;;5002760;28;20072;-76
2024/02/20 01:32:43;;;;;;;24.25;13.02;;;;;;;;;;5076314;28;20421;-76
2024/02/20 01:35:09;;;;;;;16.25;9.45;;;;;;;;;;5079808;28;20107;-75
2024/02/20 01:37:35;;;;;;;13.35;8.13;;;;;;;;;;5011746;28;20061;-76
2024/02/20 01:40:01;;;;;;;13.15;7.60;;;;;;;;;;5011600;28;20050;-76
2024/02/20 01:42:27;;;;;;;13.05;8.30;;;;;;;;;;5079605;28;20102;-76
2024/02/20 01:44:53;;;;;;;14.77;7.93;;;;;;;;;;5011715;28;20131;-77
2024/02/20 01:47:19;;;;;;;14.30;8.98;;;;;;;;;;5089220;28;20141;-76
2024/02/20 01:49:45;;;;;;;16.13;8.82;;;;;;;;;;5010469;28;20026;-76
2024/02/20 01:52:14;;;;;;;21.27;11.20;;;;;;;;;;5079171;28;20029;-75
2024/02/20 01:54:40;;;;;;;17.65;10.82;;;;;;;;;;5079600;28;20067;-77
2024/02/20 01:57:07;;;;;;;19.35;10.70;;;;;;;;;;5079459;28;20037;-78
2024/02/20 01:59:36;;;;;;;19.70;11.23;;;;;;;;;;5079130;28;20495;-75
2024/02/20 02:02:02;;;;;;;24.38;13.10;;;;;;;;;;5066393;28;20018;-77
2024/02/20 02:04:28;;;;;;;21.77;12.18;;;;;;;;;;5011519;28;20364;-75
2024/02/20 02:06:54;;;;;;;20.42;13.52;;;;;;;;;;5011476;28;20018;-77
2024/02/20 02:09:20;;;;;;;23.27;14.10;;;;;;;;;;5011514;28;20030;-76
2024/02/20 02:11:46;;;;;;;21.77;13.23;;;;;;;;;;5079082;28;20026;-77
2024/02/20 02:14:12;;;;;;;24.42;15.45;;;;;;;;;;5011486;28;20038;-76
2024/02/20 02:16:41;;;;;;;24.20;15.57;;;;;;;;;;5011403;28;20083;-76
2024/02/20 02:19:07;;;;;;;37.00;19.45;;;;;;;;;;5011095;28;20022;-77
2024/02/20 02:21:35;;;;;;;29.05;16.88;;;;;;;;;;5079172;28;20464;-76
2024/02/20 02:24:00;;;;;;;38.38;20.08;;;;;;;;;;5009706;28;20022;-76
2024/02/20 02:26:27;;;;;;;38.60;20.35;;;;;;;;;;4990587;28;20029;-75
2024/02/20 02:28:53;;;;;;;39.22;20.27;;;;;;;;;;5069688;28;20552;-76
2024/02/20 02:31:20;;;;;;;48.90;22.13;;;;;;;;;;5011171;28;20018;-77
2024/02/20 02:33:48;;;;;;;42.65;20.17;;;;;;;;;;5010890;28;20050;-75
2024/02/20 02:36:15;;;;;;;50.28;24.92;;;;;;;;;;5078491;28;20087;-77
2024/02/20 02:38:41;;;;;;;56.80;26.60;;;;;;;;;;5078229;28;20049;-76
2024/02/20 02:41:07;;;;;;;53.00;26.73;;;;;;;;;;5078613;28;20056;-77
2024/02/20 02:43:33;;;;;;;56.47;26.70;;;;;;;;;;5078146;28;20030;-75
2024/02/20 02:45:59;;;;;;;49.95;25.58;;;;;;;;;;5078547;28;20028;-76
2024/02/20 02:48:25;;;;;;;43.42;25.38;;;;;;;;;;5010414;28;20033;-76
2024/02/20 02:50:51;;;;;;;44.65;23.63;;;;;;;;;;5011031;28;20068;-75
2024/02/20 02:53:17;;;;;;;51.35;27.73;;;;;;;;;;5010629;28;20040;-75
2024/02/20 02:55:43;;;;;;;48.95;29.05;;;;;;;;;;5010898;28;20059;-76
2024/02/20 02:58:09;;;;;;;53.25;28.25;;;;;;;;;;5010530;28;20030;-76
2024/02/20 03:00:35;;;;;;;47.80;26.25;;;;;;;;;;5078181;28;20556;-76
2024/02/20 03:03:01;;;;;;;43.53;23.70;;;;;;;;;;5077905;28;20025;-75
2024/02/20 03:05:27;;;;;;;50.25;25.65;;;;;;;;;;5078136;28;20022;-76
2024/02/20 03:07:53;;;;;;;54.85;26.13;;;;;;;;;;5010221;28;20038;-75
2024/02/20 03:10:20;;;;;;;49.00;23.58;;;;;;;;;;5078314;28;20417;-77
2024/02/20 03:12:46;;;;;;;49.45;27.33;;;;;;;;;;5010174;28;20112;-77
2024/02/20 03:15:12;;;;;;;46.55;25.58;;;;;;;;;;5002837;28;20459;-76
2024/02/20 03:17:43;;;;;;;43.15;24.67;;;;;;;;;;5005472;28;20032;-77
2024/02/20 03:20:14;;;;;;;49.55;25.77;;;;;;;;;;5010557;28;20026;-76
2024/02/20 03:22:40;;;;;;;49.47;23.60;;;;;;;;;;5076650;28;20022;-77
2024/02/20 03:25:07;;;;;;;40.53;20.92;;;;;;;;;;5010723;28;20103;-77
2024/02/20 03:27:33;;;;;;;36.92;18.90;;;;;;;;;;5077217;28;20048;-76
2024/02/20 03:30:00;;;;;;;34.35;19.70;;;;;;;;;;5078074;28;20047;-76
2024/02/20 03:32:26;;;;;;;38.08;20.65;;;;;;;;;;5010243;28;20052;-76
2024/02/20 03:34:52;;;;;;;37.92;18.42;;;;;;;;;;5078160;28;20068;-76
2024/02/20 03:37:18;;;;;;;32.65;17.98;;;;;;;;;;5077267;28;20121;-76
2024/02/20 03:39:44;;;;;;;31.45;17.73;;;;;;;;;;5077593;28;20182;-76
2024/02/20 03:42:10;;;;;;;31.27;17.30;;;;;;;;;;5077435;28;20022;-77
2024/02/20 03:44:40;;;;;;;36.00;18.88;;;;;;;;;;5010244;28;20066;-76
2024/02/20 03:47:06;;;;;;;41.72;23.30;;;;;;;;;;5009875;28;20068;-77
2024/02/20 03:49:32;;;;;;;30.42;15.00;;;;;;;;;;5010635;28;20059;-77
2024/02/20 03:51:58;;;;;;;34.95;17.60;;;;;;;;;;5009801;28;20480;-76
2024/02/20 03:54:25;;;;;;;31.02;16.33;;;;;;;;;;5010173;28;20124;-76
2024/02/20 03:56:51;;;;;;;40.03;18.75;;;;;;;;;;5009529;28;20014;-76
2024/02/20 03:59:17;;;;;;;30.63;16.67;;;;;;;;;;5010232;28;20033;-76
2024/02/20 04:01:43;;;;;;;41.45;21.92;;;;;;;;;;5077525;28;20049;-77
2024/02/20 04:04:10;;;;;;;35.42;19.10;;;;;;;;;;5010156;28;20037;-76
2024/02/20 04:06:36;;;;;;;36.75;19.27;;;;;;;;;;5009497;28;20113;-76
2024/02/20 04:09:05;;;;;;;35.28;18.17;;;;;;;;;;5077730;28;20042;-76
2024/02/20 04:11:31;;;;;;;46.13;24.42;;;;;;;;;;5009732;28;20108;-76
2024/02/20 04:13:57;;;;;;;38.45;20.50;;;;;;;;;;5009687;28;20390;-76
2024/02/20 04:16:23;;;;;;;40.35;21.45;;;;;;;;;;5009593;28;20113;-77
2024/02/20 04:18:49;;;;;;;44.45;22.95;;;;;;;;;;5009828;28;20105;-77
2024/02/20 04:21:15;;;;;;;35.35;19.08;;;;;;;;;;5009592;28;20026;-77
2024/02/20 04:23:41;;;;;;;115.20;43.10;;;;;;;;;;5077242;28;20018;-77
2024/02/20 04:26:07;;;;;;;118.50;45.65;;;;;;;;;;5077057;28;20050;-77
2024/02/20 04:28:35;;;;;;;260.40;87.95;;;;;;;;;;5009504;28;20034;-77
2024/02/20 04:31:04;;;;;;;150.32;55.13;;;;;;;;;;5009250;28;20026;-76
2024/02/20 04:33:31;;;;;;;180.00;66.20;;;;;;;;;;5009468;28;20026;-77
2024/02/20 04:35:57;;;;;;;171.60;59.05;;;;;;;;;;5009280;28;20018;-76
2024/02/20 04:38:23;;;;;;;202.32;74.78;;;;;;;;;;5077389;28;20060;-76
2024/02/20 04:40:52;;;;;;;363.52;124.20;;;;;;;;;;5076832;28;20438;-76
2024/02/20 04:43:18;;;;;;;220.20;73.55;;;;;;;;;;5009466;28;20056;-76
2024/02/20 04:45:48;;;;;;;193.10;67.40;;;;;;;;;;5077009;28;20555;-75
2024/02/20 04:48:14;;;;;;;223.57;82.53;;;;;;;;;;5077099;28;20045;-77
2024/02/20 04:50:40;;;;;;;201.75;71.65;;;;;;;;;;5011514;28;20029;-76
2024/02/20 04:53:08;;;;;;;265.33;95.13;;;;;;;;;;5012703;28;20022;-76
2024/02/20 04:55:34;;;;;;;196.32;69.70;;;;;;;;;;5012304;28;20022;-77
2024/02/20 04:58:00;;;;;;;171.43;60.80;;;;;;;;;;5080390;28;20046;-76
2024/02/20 05:00:26;;;;;;;187.77;70.22;;;;;;;;;;5006083;28;20022;-76
2024/02/20 05:02:52;;;;;;;278.70;95.93;;;;;;;;;;5073705;28;20030;-77
2024/02/20 05:05:18;;;;;;;133.90;50.85;;;;;;;;;;5080460;28;20032;-75
2024/02/20 05:07:44;;;;;;;136.73;51.85;;;;;;;;;;5012148;28;20060;-76
2024/02/20 05:10:10;;;;;;;159.20;55.53;;;;;;;;;;5012486;28;20120;-76
2024/02/20 05:12:43;;;;;;;112.30;40.75;;;;;;;;;;5079808;28;20510;-76
2024/02/20 05:15:09;;;;;;;154.45;53.10;;;;;;;;;;5080544;28;20052;-76
2024/02/20 05:17:35;;;;;;;103.57;40.40;;;;;;;;;;5079746;28;20079;-76
2024/02/20 05:20:01;;;;;;;142.10;51.80;;;;;;;;;;5080159;28;20021;-76
2024/02/20 05:22:27;;;;;;;118.28;46.35;;;;;;;;;;5078977;28;20036;-76
2024/02/20 05:24:53;;;;;;;135.85;50.08;;;;;;;;;;5011928;28;20060;-76
2024/02/20 05:27:20;;;;;;;115.97;45.15;;;;;;;;;;5012053;28;20061;-76
2024/02/20 05:29:46;;;;;;;128.10;46.50;;;;;;;;;;5079845;28;20540;-76
2024/02/20 05:32:12;;;;;;;118.47;45.17;;;;;;;;;;5011873;28;20030;-75
2024/02/20 05:34:38;;;;;;;141.80;49.30;;;;;;;;;;5012239;28;20414;-75
2024/02/20 05:37:04;;;;;;;137.65;49.40;;;;;;;;;;5079494;28;20030;-77
2024/02/20 05:39:30;;;;;;;150.65;55.28;;;;;;;;;;5079682;28;20571;-76
2024/02/20 05:41:56;;;;;;;160.48;58.70;;;;;;;;;;5011067;28;20026;-76
2024/02/20 05:44:22;;;;;;;176.38;62.03;;;;;;;;;;5080035;28;20026;-76
2024/02/20 05:46:48;;;;;;;128.75;49.92;;;;;;;;;;5078912;28;20033;-77
2024/02/20 05:49:14;;;;;;;102.68;40.53;;;;;;;;;;5011823;28;20030;-76
2024/02/20 05:51:40;;;;;;;115.97;45.97;;;;;;;;;;5079076;28;20083;-76
2024/02/20 05:54:06;;;;;;;115.60;41.80;;;;;;;;;;5011838;28;20410;-76
2024/02/20 05:56:32;;;;;;;96.80;41.15;;;;;;;;;;5011518;28;20407;-76
2024/02/20 05:58:58;;;;;;;93.47;38.33;;;;;;;;;;5011669;28;20032;-76
2024/02/20 06:01:25;;;;;;;114.65;44.45;;;;;;;;;;5011085;28;20383;-75
2024/02/20 06:03:51;;;;;;;89.45;39.53;;;;;;;;;;5079376;28;20137;-77
2024/02/20 06:06:17;;;;;;;89.93;39.10;;;;;;;;;;5011386;28;20104;-76
2024/02/20 06:08:46;;;;;;;73.65;31.52;;;;;;;;;;5011455;28;20441;-76
2024/02/20 06:11:13;;;;;;;59.50;30.33;;;;;;;;;;5011202;28;20108;-75
2024/02/20 06:13:39;;;;;;;62.35;30.23;;;;;;;;;;5079177;28;20099;-76
2024/02/20 06:16:05;;;;;;;62.97;29.83;;;;;;;;;;5011078;28;20053;-76
2024/02/20 06:18:31;;;;;;;61.92;29.45;;;;;;;;;;5011389;28;20025;-76
2024/02/20 06:20:57;;;;;;;65.82;29.95;;;;;;;;;;5011113;28;20390;-75
2024/02/20 06:23:23;;;;;;;75.55;36.38;;;;;;;;;;5010478;28;20018;-75
2024/02/20 06:25:49;;;;;;;81.57;37.05;;;;;;;;;;5010613;28;20034;-75
2024/02/20 06:28:17;;;;;;;89.93;38.55;;;;;;;;;;5011147;28;20033;-75
2024/02/20 06:30:43;;;;;;;73.80;35.97;;;;;;;;;;5010864;28;20026;-77
2024/02/20 06:33:09;;;;;;;64.80;32.63;;;;;;;;;;5011226;28;20105;-77
2024/02/20 06:35:35;;;;;;;78.32;35.38;;;;;;;;;;5010886;28;20101;-75
2024/02/20 06:38:01;;;;;;;65.90;30.88;;;;;;;;;;5078745;28;20025;-77
2024/02/20 06:40:28;;;;;;;58.13;30.10;;;;;;;;;;5078384;28;20590;-76
2024/02/20 06:42:54;;;;;;;62.42;30.95;;;;;;;;;;5078379;28;20055;-76
2024/02/20 06:45:20;;;;;;;71.72;34.63;;;;;;;;;;5010762;28;20551;-77
2024/02/20 06:47:49;;;;;;;75.25;36.22;;;;;;;;;;5010877;28;20117;-76
2024/02/20 06:50:15;;;;;;;56.50;29.80;;;;;;;;;;5077915;28;20589;-77
2024/02/20 06:52:43;;;;;;;53.47;26.38;;;;;;;;;;5010782;28;20022;-75
2024/02/20 06:55:09;;;;;;;55.85;28.20;;;;;;;;;;5010599;28;20482;-75
2024/02/20 06:57:37;;;;;;;52.70;28.00;;;;;;;;;;5078317;28;20026;-76
2024/02/20 07:00:04;;;;;;;64.90;31.67;;;;;;;;;;5010536;28;20058;-77
2024/02/20 07:02:30;;;;;;;63.45;29.20;;;;;;;;;;4996658;28;20030;-77
2024/02/20 07:04:56;;;;;;;56.08;27.63;;;;;;;;;;4994402;28;20022;-77
2024/02/20 07:07:22;;;;;;;57.25;29.42;;;;;;;;;;5000430;28;20042;-75
2024/02/20 07:09:48;;;;;;;58.78;30.42;;;;;;;;;;5077343;28;20022;-76
2024/02/20 07:12:14;;;;;;;72.80;35.53;;;;;;;;;;5072091;28;20125;-77
2024/02/20 07:14:40;;;;;;;60.08;30.30;;;;;;;;;;5076839;28;20055;-76
2024/02/20 07:17:07;;;;;;;59.67;30.60;;;;;;;;;;5076690;28;20026;-77
2024/02/20 07:19:33;;;;;;;54.03;27.95;;;;;;;;;;4998979;28;20475;-75
2024/02/20 07:21:59;;;;;;;51.35;29.13;;;;;;;;;;5064576;28;20037;-76
2024/02/20 07:24:25;;;;;;;52.58;29.20;;;;;;;;;;5069722;28;20022;-76
2024/02/20 07:26:51;;;;;;;54.38;29.30;;;;;;;;;;5074629;28;20030;-76
2024/02/20 07:29:19;;;;;;;51.72;27.80;;;;;;;;;;4995251;28;20042;-76
2024/02/20 07:31:45;;;;;;;49.88;26.42;;;;;;;;;;4992648;28;20030;-77
2024/02/20 07:34:11;;;;;;;48.92;26.75;;;;;;;;;;4995390;28;20068;-76
2024/02/20 07:36:38;;;;;;;55.53;28.83;;;;;;;;;;5068327;28;20030;-76
2024/02/20 07:39:04;;;;;;;53.28;27.70;;;;;;;;;;5047789;28;20077;-76
2024/02/20 07:41:30;;;;;;;52.42;26.48;;;;;;;;;;5066857;28;20022;-77
2024/02/20 07:43:57;;;;;;;43.60;25.60;;;;;;;;;;5075460;28;20018;-76
2024/02/20 07:46:23;;;;;;;44.78;25.35;;;;;;;;;;5008228;28;20083;-76
2024/02/20 07:48:49;;;;;;;45.40;27.27;;;;;;;;;;5007773;28;20175;-77
2024/02/20 07:51:16;;;;;;;52.92;29.15;;;;;;;;;;5075469;28;20117;-76
2024/02/20 07:53:43;;;;;;;55.60;29.63;;;;;;;;;;5007637;28;20064;-76
2024/02/20 07:56:09;;;;;;;53.17;28.83;;;;;;;;;;5077203;28;20067;-76
2024/02/20 07:58:38;;;;;;;51.97;29.02;;;;;;;;;;5008198;28;20018;-77
2024/02/20 08:01:13;;;;;;;53.05;28.58;;;;;;;;;;5007891;28;20071;-76
2024/02/20 08:03:39;;;;;;;55.63;30.63;;;;;;;;;;5006162;28;20022;-76
2024/02/20 08:06:05;;;;;;;67.93;35.95;;;;;;;;;;5007840;28;20084;-76
2024/02/20 08:08:31;;;;;;;65.85;32.05;;;;;;;;;;5007811;28;20485;-76
2024/02/20 08:10:57;;;;;;;66.78;33.28;;;;;;;;;;5075304;28;20055;-76
2024/02/20 08:13:25;;;;;;;66.95;35.05;;;;;;;;;;5009075;28;20564;-76
2024/02/20 08:15:51;;;;;;;65.72;35.20;;;;;;;;;;5077179;28;20022;-76
2024/02/20 08:18:17;;;;;;;69.30;35.92;;;;;;;;;;5077296;28;20045;-76
2024/02/20 08:20:42;;;;;;;62.55;32.53;;;;;;;;;;5077450;28;20015;-76
2024/02/20 08:23:08;;;;;;;69.78;34.88;;;;;;;;;;5008891;28;20022;-77
2024/02/20 08:25:34;;;;;;;70.22;35.30;;;;;;;;;;5080259;28;20120;-77
2024/02/20 08:28:00;;;;;;;61.38;33.65;;;;;;;;;;5000025;28;20029;-76
2024/02/20 08:30:26;;;;;;;65.82;32.83;;;;;;;;;;5081064;28;20479;-76
2024/02/20 08:32:53;;;;;;;70.57;36.42;;;;;;;;;;5012810;28;20022;-77
2024/02/20 08:35:19;;;;;;;71.75;38.40;;;;;;;;;;5080913;28;20022;-77
2024/02/20 08:37:45;;;;;;;72.85;37.47;;;;;;;;;;5080789;28;20026;-77
2024/02/20 08:40:12;;;;;;;71.75;36.22;;;;;;;;;;5012361;28;20411;-76
2024/02/20 08:42:38;;;;;;;73.55;37.65;;;;;;;;;;5080967;28;20540;-75
2024/02/20 08:45:05;;;;;;;70.22;35.55;;;;;;;;;;5080872;28;20034;-76
2024/02/20 08:47:31;;;;;;;70.20;36.33;;;;;;;;;;5080796;28;20034;-78
2024/02/20 08:49:57;;;;;;;67.22;35.10;;;;;;;;;;5080418;28;20046;-77
2024/02/20 08:52:23;;;;;;;61.20;32.13;;;;;;;;;;5012715;28;20078;-77
2024/02/20 08:54:49;;;;;;;59.78;31.38;;;;;;;;;;5080138;28;20040;-76
2024/02/20 08:57:15;;;;;;;59.15;32.83;;;;;;;;;;5080670;28;20061;-76
2024/02/20 08:59:41;;;;;;;55.20;30.95;;;;;;;;;;5011686;28;20053;-76
2024/02/20 09:02:07;;;;;;;54.78;29.38;;;;;;;;;;4992941;28;20044;-76
2024/02/20 09:04:33;;;;;;;51.88;28.23;;;;;;;;;;5006579;28;20479;-76
2024/02/20 09:06:59;;;;;;;48.90;27.30;;;;;;;;;;5012391;28;20029;-76
2024/02/20 09:09:25;;;;;;;51.42;26.83;;;;;;;;;;5080233;28;20049;-76
2024/02/20 09:11:51;;;;;;;51.38;27.83;;;;;;;;;;5012215;28;20026;-76
2024/02/20 09:14:21;;;;;;;47.40;26.85;;;;;;;;;;5012221;28;20033;-77
2024/02/20 09:16:48;;;;;;;58.10;30.55;;;;;;;;;;5080193;28;20038;-76
2024/02/20 09:19:15;;;;;;;57.83;29.10;;;;;;;;;;5080041;28;20033;-76
2024/02/20 09:21:42;;;;;;;59.95;30.73;;;;;;;;;;5080048;28;20029;-77
2024/02/20 09:24:10;;;;;;;62.15;32.72;;;;;;;;;;5079675;28;20033;-77
2024/02/20 09:26:39;;;;;;;51.40;27.40;;;;;;;;;;5079955;28;20018;-76
2024/02/20 09:29:05;;;;;;;59.10;29.58;;;;;;;;;;5011905;28;20034;-76
2024/02/20 09:31:31;;;;;;;76.35;39.17;;;;;;;;;;5079744;28;20386;-77
2024/02/20 09:33:57;;;;;;;66.07;30.50;;;;;;;;;;5011794;28;20093;-76
2024/02/20 09:36:23;;;;;;;88.70;37.42;;;;;;;;;;5079233;28;20402;-77
2024/02/20 09:38:49;;;;;;;57.03;28.85;;;;;;;;;;5079465;28;20030;-76
2024/02/20 09:41:21;;;;;;;75.82;35.33;;;;;;;;;;5012213;28;20407;-76
2024/02/20 09:43:47;;;;;;;88.70;38.03;;;;;;;;;;5079511;28;20536;-77
2024/02/20 09:46:16;;;;;;;64.53;31.00;;;;;;;;;;5079484;28;20096;-76
2024/02/20 09:48:43;;;;;;;59.80;29.13;;;;;;;;;;5011797;28;20391;-78
2024/02/20 09:51:10;;;;;;;65.93;32.40;;;;;;;;;;5079692;28;20026;-76
2024/02/20 09:53:37;;;;;;;71.05;36.10;;;;;;;;;;5079277;28;20021;-77
2024/02/20 09:56:03;;;;;;;80.50;42.42;;;;;;;;;;5079512;28;20034;-77
2024/02/20 09:58:29;;;;;;;92.20;44.47;;;;;;;;;;5079421;28;20056;-77
2024/02/20 10:00:57;;;;;;;137.07;60.28;;;;;;;;;;5011682;28;20491;-77
2024/02/20 10:03:24;;;;;;;89.03;42.58;;;;;;;;;;5079201;28;20026;-76
2024/02/20 10:05:50;;;;;;;66.78;32.92;;;;;;;;;;5079196;28;20502;-76
2024/02/20 10:08:16;;;;;;;67.75;35.90;;;;;;;;;;5011310;28;20030;-78
2024/02/20 10:10:46;;;;;;;57.58;31.25;;;;;;;;;;5079128;28;20109;-76
2024/02/20 10:13:12;;;;;;;57.30;30.42;;;;;;;;;;5079105;28;20064;-76
2024/02/20 10:15:38;;;;;;;55.05;30.45;;;;;;;;;;5079009;28;20026;-76
2024/02/20 10:18:04;;;;;;;53.35;28.17;;;;;;;;;;5078835;28;20029;-76
2024/02/20 10:20:31;;;;;;;51.40;27.63;;;;;;;;;;5079098;28;20024;-75
2024/02/20 10:23:03;;;;;;;57.42;31.17;;;;;;;;;;5078332;28;20033;-76
2024/02/20 10:25:30;;;;;;;58.17;29.33;;;;;;;;;;5011264;28;20422;-77
2024/02/20 10:27:56;;;;;;;58.63;32.05;;;;;;;;;;5010870;28;20045;-77
2024/02/20 10:30:22;;;;;;;61.72;32.88;;;;;;;;;;5078803;28;20022;-77
2024/02/20 10:32:48;;;;;;;51.00;28.42;;;;;;;;;;5010575;28;20361;-76
2024/02/20 10:35:14;;;;;;;53.05;29.35;;;;;;;;;;5078563;28;20030;-76
2024/02/20 10:37:40;;;;;;;81.20;40.83;;;;;;;;;;5010847;28;20025;-76
2024/02/20 10:40:10;;;;;;;47.03;26.40;;;;;;;;;;5078490;28;20054;-75
2024/02/20 10:42:36;;;;;;;48.65;24.65;;;;;;;;;;5078660;28;20030;-77
2024/02/20 10:45:10;;;;;;;45.92;24.17;;;;;;;;;;5078710;28;20037;-76
2024/02/20 10:47:42;;;;;;;50.40;27.70;;;;;;;;;;5065392;28;20478;-77
2024/02/20 10:50:08;;;;;;;59.75;29.33;;;;;;;;;;5078450;28;20117;-76
2024/02/20 10:52:36;;;;;;;56.83;29.67;;;;;;;;;;5010798;28;20380;-77
2024/02/20 10:55:06;;;;;;;65.78;33.72;;;;;;;;;;5077931;28;20487;-76
2024/02/20 10:57:34;;;;;;;92.72;42.10;;;;;;;;;;5010654;28;20022;-76
2024/02/20 11:00:02;;;;;;;95.25;48.15;;;;;;;;;;5010437;28;20018;-77
2024/02/20 11:02:28;;;;;;;77.25;41.42;;;;;;;;;;5010742;28;20026;-77
2024/02/20 11:04:55;;;;;;;90.68;46.53;;;;;;;;;;5078060;28;20014;-76
2024/02/20 11:07:21;;;;;;;100.00;48.72;;;;;;;;;;5078179;28;20060;-77
2024/02/20 11:10:09;;;;;;;87.45;44.47;;;;;;;;;;5077951;28;20063;-76
2024/02/20 11:12:35;;;;;;;92.25;43.95;;;;;;;;;;5010237;28;20060;-76
2024/02/20 11:15:07;;;;;;;83.72;38.60;;;;;;;;;;5077838;28;20045;-76
2024/02/20 11:17:36;;;;;;;119.53;54.58;;;;;;;;;;5077868;28;20034;-76
2024/02/20 11:20:13;;;;;;;57.25;30.67;;;;;;;;;;5078039;28;20026;-77
2024/02/20 11:22:39;;;;;;;71.40;36.78;;;;;;;;;;5076722;28;20030;-77
2024/02/20 11:25:07;;;;;;;84.28;41.60;;;;;;;;;;5077968;28;20029;-76
2024/02/20 11:27:37;;;;;;;64.63;33.90;;;;;;;;;;5077826;28;20026;-77
2024/02/20 11:30:18;;;;;;;75.45;36.85;;;;;;;;;;5010259;28;20026;-76
2024/02/20 11:32:45;;;;;;;75.30;40.55;;;;;;;;;;5077758;28;20452;-76
2024/02/20 11:35:21;;;;;;;80.63;37.65;;;;;;;;;;5010268;28;20093;-77
2024/02/20 11:37:48;;;;;;;74.90;38.10;;;;;;;;;;5077594;28;20022;-77
2024/02/20 11:40:32;;;;;;;67.82;34.30;;;;;;;;;;4996800;28;20137;-76
2024/02/20 11:42:59;;;;;;;55.67;29.98;;;;;;;;;;5010005;28;20060;-76
2024/02/20 11:45:28;;;;;;;61.67;32.17;;;;;;;;;;5077621;28;20435;-76
2024/02/20 11:48:11;;;;;;;69.05;35.42;;;;;;;;;;5009849;28;20038;-77
2024/02/20 11:50:37;;;;;;;61.03;33.97;;;;;;;;;;5010083;28;20105;-78
2024/02/20 11:53:10;;;;;;;67.43;33.35;;;;;;;;;;5010057;28;20034;-78
2024/02/20 11:55:39;;;;;;;53.92;29.92;;;;;;;;;;5061979;28;20048;-76
2024/02/20 11:58:05;;;;;;;54.22;29.38;;;;;;;;;;5072601;28;20026;-78
2024/02/20 12:00:35;;;;;;;46.67;25.98;;;;;;;;;;5081441;28;20147;-76
2024/02/20 12:03:04;;;;;;;54.58;29.05;;;;;;;;;;5081480;28;20391;-76
2024/02/20 12:05:37;;;;;;;49.63;28.00;;;;;;;;;;5013598;28;20022;-76
2024/02/20 12:08:23;;;;;;;55.00;30.63;;;;;;;;;;5013055;28;20030;-74
2024/02/20 12:10:49;;;;;;;55.97;28.35;;;;;;;;;;5013458;28;20029;-75
2024/02/20 12:13:19;;;;;;;47.33;25.10;;;;;;;;;;5013170;28;20100;-75
2024/02/20 12:15:49;;;;;;;45.72;26.20;;;;;;;;;;5013152;28;20050;-76
2024/02/20 12:18:25;;;;;;;50.53;29.98;;;;;;;;;;5081530;28;20379;-75
2024/02/20 12:20:52;;;;;;;49.42;25.83;;;;;;;;;;5012989;28;20483;-76
2024/02/20 12:23:19;;;;;;;47.97;26.35;;;;;;;;;;5081081;28;20061;-76
2024/02/20 12:25:46;;;;;;;65.20;26.25;;;;;;;;;;5012808;28;20056;-75
2024/02/20 12:28:12;;;;;;;44.97;24.83;;;;;;;;;;5013027;28;20034;-75
2024/02/20 12:30:38;;;;;;;43.17;23.10;;;;;;;;;;5081047;28;20026;-76
2024/02/20 12:33:04;;;;;;;39.60;21.90;;;;;;;;;;5013132;28;20037;-76
2024/02/20 12:35:30;;;;;;;43.13;25.30;;;;;;;;;;5012701;28;20026;-76
2024/02/20 12:37:56;;;;;;;32.63;19.63;;;;;;;;;;5080991;28;20376;-76
2024/02/20 12:40:25;;;;;;;39.03;20.75;;;;;;;;;;5012502;28;20077;-75
2024/02/20 12:42:51;;;;;;;36.90;18.85;;;;;;;;;;5012612;28;20026;-75
2024/02/20 12:45:17;;;;;;;36.90;19.50;;;;;;;;;;5012726;28;20105;-75
2024/02/20 12:47:43;;;;;;;31.23;18.58;;;;;;;;;;5004429;28;20117;-76
2024/02/20 12:50:09;;;;;;;32.72;19.67;;;;;;;;;;5008423;28;20105;-76
2024/02/20 12:52:36;;;;;;;40.55;22.65;;;;;;;;;;5013044;28;20022;-75
2024/02/20 12:55:02;;;;;;;34.55;20.75;;;;;;;;;;5012350;28;20026;-76
2024/02/20 12:57:28;;;;;;;30.70;20.17;;;;;;;;;;5080368;28;20104;-76
2024/02/20 12:59:54;;;;;;;33.38;19.67;;;;;;;;;;5012238;28;20046;-76
2024/02/20 13:02:20;;;;;;;34.30;21.75;;;;;;;;;;5012612;28;20472;-76
2024/02/20 13:04:46;;;;;;;33.03;20.95;;;;;;;;;;5080025;28;20038;-75
2024/02/20 13:07:13;;;;;;;38.30;21.40;;;;;;;;;;5012412;28;20104;-76
2024/02/20 13:09:39;;;;;;;39.72;21.38;;;;;;;;;;5079591;28;20034;-75
2024/02/20 13:12:08;;;;;;;33.17;20.52;;;;;;;;;;5079822;28;20026;-77
2024/02/20 13:14:34;;;;;;;39.20;21.92;;;;;;;;;;5012156;28;20037;-76
2024/02/20 13:17:00;;;;;;;32.35;20.15;;;;;;;;;;5080484;28;20498;-75
2024/02/20 13:19:29;;;;;;;33.65;21.00;;;;;;;;;;5012320;28;20053;-77
2024/02/20 13:21:55;;;;;;;43.60;22.52;;;;;;;;;;5080087;28;20076;-76
2024/02/20 13:24:21;;;;;;;35.83;21.55;;;;;;;;;;5011227;28;20026;-75
2024/02/20 13:26:53;;;;;;;40.30;21.08;;;;;;;;;;5079917;28;20058;-75
2024/02/20 13:29:19;;;;;;;54.25;26.23;;;;;;;;;;5012165;28;20029;-77
2024/02/20 13:31:45;;;;;;;36.13;20.27;;;;;;;;;;5079874;28;20030;-77
2024/02/20 13:34:11;;;;;;;37.10;20.60;;;;;;;;;;5079626;28;20018;-75
2024/02/20 13:36:37;;;;;;;33.65;20.25;;;;;;;;;;5079821;28;20053;-75
2024/02/20 13:39:03;;;;;;;44.55;23.77;;;;;;;;;;5011603;28;20073;-76
2024/02/20 13:41:29;;;;;;;37.28;21.45;;;;;;;;;;5012064;28;20018;-77
2024/02/20 13:43:55;;;;;;;37.67;21.63;;;;;;;;;;5079120;28;20028;-75
2024/02/20 13:46:22;;;;;;;33.92;19.77;;;;;;;;;;5011777;28;20057;-76
2024/02/20 13:48:49;;;;;;;28.33;17.90;;;;;;;;;;5011535;28;20025;-75
2024/02/20 13:51:16;;;;;;;32.25;17.67;;;;;;;;;;5079413;28;20112;-76
2024/02/20 13:53:42;;;;;;;27.92;17.40;;;;;;;;;;5079570;28;20108;-76
2024/02/20 13:56:08;;;;;;;24.65;15.05;;;;;;;;;;5079415;28;20478;-75
2024/02/20 13:58:34;;;;;;;20.77;12.82;;;;;;;;;;5011368;28;20121;-75
2024/02/20 14:01:01;;;;;;;20.40;12.05;;;;;;;;;;5011714;28;20077;-76
2024/02/20 14:03:27;;;;;;;17.85;11.57;;;;;;;;;;5011422;28;20018;-76
2024/02/20 14:05:53;;;;;;;17.58;11.85;;;;;;;;;;5079503;28;20063;-76
2024/02/20 14:08:20;;;;;;;19.23;12.20;;;;;;;;;;5078996;28;20128;-75
2024/02/20 14:10:47;;;;;;;20.48;13.05;;;;;;;;;;5079447;28;20030;-75
2024/02/20 14:13:13;;;;;;;16.92;11.82;;;;;;;;;;5079138;28;20026;-76